sensor_id;sensor_type;location;lat;lon;timestamp;temperature;humidity
77519;DHT22;66629;47.346;19.038;2023-04-26T00:01:14;8.88;83.09
77519;DHT22;66629;47.346;19.038;2023-04-26T00:03:40;8.85;83.11
77519;DHT22;66629;47.346;19.038;2023-04-26T00:06:06;8.83;83.46
77519;DHT22;66629;47.346;19.038;2023-04-26T00:08:37;8.83;83.14
77519;DHT22;66629;47.346;19.038;2023-04-26T00:11:02;8.83;83.10
77519;DHT22;66629;47.346;19.038;2023-04-26T00:13:28;8.81;83.26
77519;DHT22;66629;47.346;19.038;2023-04-26T00:15:53;8.85;83.27
77519;DHT22;66629;47.346;19.038;2023-04-26T00:18:19;8.86;83.38
77519;DHT22;66629;47.346;19.038;2023-04-26T00:20:44;8.86;82.67
77519;DHT22;66629;47.346;19.038;2023-04-26T00:23:10;8.95;82.69
77519;DHT22;66629;47.346;19.038;2023-04-26T00:25:36;8.96;82.89
77519;DHT22;66629;47.346;19.038;2023-04-26T00:28:02;8.99;82.20
77519;DHT22;66629;47.346;19.038;2023-04-26T00:30:28;9.02;82.51
77519;DHT22;66629;47.346;19.038;2023-04-26T00:32:53;9.05;82.26
77519;DHT22;66629;47.346;19.038;2023-04-26T00:35:19;9.07;82.36
77519;DHT22;66629;47.346;19.038;2023-04-26T00:37:44;9.10;81.98
77519;DHT22;66629;47.346;19.038;2023-04-26T00:40:11;9.09;82.08
77519;DHT22;66629;47.346;19.038;2023-04-26T00:42:37;9.07;82.18
77519;DHT22;66629;47.346;19.038;2023-04-26T00:45:04;9.07;81.98
77519;DHT22;66629;47.346;19.038;2023-04-26T00:47:30;9.06;82.10
77519;DHT22;66629;47.346;19.038;2023-04-26T00:49:55;9.05;82.30
77519;DHT22;66629;47.346;19.038;2023-04-26T00:52:21;9.00;82.23
77519;DHT22;66629;47.346;19.038;2023-04-26T00:54:48;9.00;82.22
77519;DHT22;66629;47.346;19.038;2023-04-26T00:57:14;9.00;82.18
77519;DHT22;66629;47.346;19.038;2023-04-26T00:59:39;8.97;82.24
77519;DHT22;66629;47.346;19.038;2023-04-26T01:02:05;8.89;82.29
77519;DHT22;66629;47.346;19.038;2023-04-26T01:04:31;8.83;82.37
77519;DHT22;66629;47.346;19.038;2023-04-26T01:06:59;8.79;82.48
77519;DHT22;66629;47.346;19.038;2023-04-26T01:09:24;8.81;82.55
77519;DHT22;66629;47.346;19.038;2023-04-26T01:11:50;8.72;82.67
77519;DHT22;66629;47.346;19.038;2023-04-26T01:14:17;8.69;82.65
77519;DHT22;66629;47.346;19.038;2023-04-26T01:16:43;8.72;82.18
77519;DHT22;66629;47.346;19.038;2023-04-26T01:19:11;8.71;82.39
77519;DHT22;66629;47.346;19.038;2023-04-26T01:21:37;8.63;82.44
77519;DHT22;66629;47.346;19.038;2023-04-26T01:24:04;8.58;82.30
77519;DHT22;66629;47.346;19.038;2023-04-26T01:26:30;8.53;82.65
77519;DHT22;66629;47.346;19.038;2023-04-26T01:28:56;8.50;82.60
77519;DHT22;66629;47.346;19.038;2023-04-26T01:31:22;8.51;82.42
77519;DHT22;66629;47.346;19.038;2023-04-26T01:33:47;8.48;82.45
77519;DHT22;66629;47.346;19.038;2023-04-26T01:36:13;8.48;82.51
77519;DHT22;66629;47.346;19.038;2023-04-26T01:38:38;8.44;82.40
77519;DHT22;66629;47.346;19.038;2023-04-26T01:41:04;8.41;82.60
77519;DHT22;66629;47.346;19.038;2023-04-26T01:43:29;8.38;82.49
77519;DHT22;66629;47.346;19.038;2023-04-26T01:45:54;8.41;81.93
77519;DHT22;66629;47.346;19.038;2023-04-26T01:48:20;8.38;82.09
77519;DHT22;66629;47.346;19.038;2023-04-26T01:50:45;8.47;81.35
77519;DHT22;66629;47.346;19.038;2023-04-26T01:53:11;8.46;81.35
77519;DHT22;66629;47.346;19.038;2023-04-26T01:55:37;8.50;80.61
77519;DHT22;66629;47.346;19.038;2023-04-26T01:58:02;8.54;79.90
77519;DHT22;66629;47.346;19.038;2023-04-26T02:00:28;8.55;80.13
77519;DHT22;66629;47.346;19.038;2023-04-26T02:02:57;8.50;80.34
77519;DHT22;66629;47.346;19.038;2023-04-26T02:05:22;8.51;79.80
77519;DHT22;66629;47.346;19.038;2023-04-26T02:07:49;8.48;79.92
77519;DHT22;66629;47.346;19.038;2023-04-26T02:10:14;8.51;79.89
77519;DHT22;66629;47.346;19.038;2023-04-26T02:12:40;8.54;79.49
77519;DHT22;66629;47.346;19.038;2023-04-26T02:15:07;8.54;79.60
77519;DHT22;66629;47.346;19.038;2023-04-26T02:17:32;8.51;79.45
77519;DHT22;66629;47.346;19.038;2023-04-26T02:19:58;8.54;79.31
77519;DHT22;66629;47.346;19.038;2023-04-26T02:22:23;8.47;79.42
77519;DHT22;66629;47.346;19.038;2023-04-26T02:24:52;8.47;79.40
77519;DHT22;66629;47.346;19.038;2023-04-26T02:27:20;8.47;79.61
77519;DHT22;66629;47.346;19.038;2023-04-26T02:29:46;8.46;79.13
77519;DHT22;66629;47.346;19.038;2023-04-26T02:32:12;8.34;79.75
77519;DHT22;66629;47.346;19.038;2023-04-26T02:34:38;8.32;79.65
77519;DHT22;66629;47.346;19.038;2023-04-26T02:37:03;8.29;79.46
77519;DHT22;66629;47.346;19.038;2023-04-26T02:39:29;8.28;79.70
77519;DHT22;66629;47.346;19.038;2023-04-26T02:41:55;8.29;78.94
77519;DHT22;66629;47.346;19.038;2023-04-26T02:44:21;8.29;79.34
77519;DHT22;66629;47.346;19.038;2023-04-26T02:46:47;8.25;79.37
77519;DHT22;66629;47.346;19.038;2023-04-26T02:49:12;8.20;79.92
77519;DHT22;66629;47.346;19.038;2023-04-26T02:51:37;8.09;80.65
77519;DHT22;66629;47.346;19.038;2023-04-26T02:54:03;7.98;81.21
77519;DHT22;66629;47.346;19.038;2023-04-26T02:56:28;7.89;81.75
77519;DHT22;66629;47.346;19.038;2023-04-26T02:58:54;7.85;81.99
77519;DHT22;66629;47.346;19.038;2023-04-26T03:01:19;7.81;82.11
77519;DHT22;66629;47.346;19.038;2023-04-26T03:03:45;7.82;82.00
77519;DHT22;66629;47.346;19.038;2023-04-26T03:06:10;7.78;81.92
77519;DHT22;66629;47.346;19.038;2023-04-26T03:08:36;7.78;82.02
77519;DHT22;66629;47.346;19.038;2023-04-26T03:11:01;7.75;82.40
77519;DHT22;66629;47.346;19.038;2023-04-26T03:13:27;7.75;82.10
77519;DHT22;66629;47.346;19.038;2023-04-26T03:15:52;7.73;82.32
77519;DHT22;66629;47.346;19.038;2023-04-26T03:18:18;7.69;82.36
77519;DHT22;66629;47.346;19.038;2023-04-26T03:20:47;7.67;82.04
77519;DHT22;66629;47.346;19.038;2023-04-26T03:23:12;7.63;81.88
77519;DHT22;66629;47.346;19.038;2023-04-26T03:25:37;7.66;81.54
77519;DHT22;66629;47.346;19.038;2023-04-26T03:28:03;7.66;81.48
77519;DHT22;66629;47.346;19.038;2023-04-26T03:30:29;7.60;81.33
77519;DHT22;66629;47.346;19.038;2023-04-26T03:32:54;7.56;81.41
77519;DHT22;66629;47.346;19.038;2023-04-26T03:35:20;7.52;81.72
77519;DHT22;66629;47.346;19.038;2023-04-26T03:37:46;7.49;81.70
77519;DHT22;66629;47.346;19.038;2023-04-26T03:40:11;7.53;81.77
77519;DHT22;66629;47.346;19.038;2023-04-26T03:42:37;7.53;81.55
77519;DHT22;66629;47.346;19.038;2023-04-26T03:45:03;7.52;81.74
77519;DHT22;66629;47.346;19.038;2023-04-26T03:47:29;7.59;81.27
77519;DHT22;66629;47.346;19.038;2023-04-26T03:49:55;7.63;80.87
77519;DHT22;66629;47.346;19.038;2023-04-26T03:52:21;7.61;80.67
77519;DHT22;66629;47.346;19.038;2023-04-26T03:54:46;7.67;80.33
77519;DHT22;66629;47.346;19.038;2023-04-26T03:57:12;7.69;80.13
77519;DHT22;66629;47.346;19.038;2023-04-26T03:59:37;7.66;80.45
77519;DHT22;66629;47.346;19.038;2023-04-26T04:02:02;7.63;80.65
77519;DHT22;66629;47.346;19.038;2023-04-26T04:04:28;7.67;80.77
77519;DHT22;66629;47.346;19.038;2023-04-26T04:06:53;7.64;80.63
77519;DHT22;66629;47.346;19.038;2023-04-26T04:09:19;7.66;80.67
77519;DHT22;66629;47.346;19.038;2023-04-26T04:11:44;7.79;80.23
77519;DHT22;66629;47.346;19.038;2023-04-26T04:14:10;8.02;79.85
77519;DHT22;66629;47.346;19.038;2023-04-26T04:16:36;8.17;79.58
77519;DHT22;66629;47.346;19.038;2023-04-26T04:19:02;8.29;78.84
77519;DHT22;66629;47.346;19.038;2023-04-26T04:21:27;8.46;78.40
77519;DHT22;66629;47.346;19.038;2023-04-26T04:23:53;8.57;78.03
77519;DHT22;66629;47.346;19.038;2023-04-26T04:26:19;8.48;77.94
77519;DHT22;66629;47.346;19.038;2023-04-26T04:28:45;8.23;78.80
77519;DHT22;66629;47.346;19.038;2023-04-26T04:31:11;8.17;79.32
77519;DHT22;66629;47.346;19.038;2023-04-26T04:33:37;8.33;78.58
77519;DHT22;66629;47.346;19.038;2023-04-26T04:36:03;8.47;78.41
77519;DHT22;66629;47.346;19.038;2023-04-26T04:38:28;8.68;78.08
77519;DHT22;66629;47.346;19.038;2023-04-26T04:40:55;8.68;78.11
77519;DHT22;66629;47.346;19.038;2023-04-26T04:43:21;8.88;77.48
77519;DHT22;66629;47.346;19.038;2023-04-26T04:45:47;8.85;77.27
77519;DHT22;66629;47.346;19.038;2023-04-26T04:48:14;8.81;77.22
77519;DHT22;66629;47.346;19.038;2023-04-26T04:50:39;8.85;76.94
77519;DHT22;66629;47.346;19.038;2023-04-26T04:53:06;9.05;76.74
77519;DHT22;66629;47.346;19.038;2023-04-26T04:55:33;8.88;76.62
77519;DHT22;66629;47.346;19.038;2023-04-26T04:57:58;9.06;76.57
77519;DHT22;66629;47.346;19.038;2023-04-26T05:00:24;9.00;76.02
77519;DHT22;66629;47.346;19.038;2023-04-26T05:02:49;9.19;75.52
77519;DHT22;66629;47.346;19.038;2023-04-26T05:05:15;8.99;75.23
77519;DHT22;66629;47.346;19.038;2023-04-26T05:07:40;9.16;74.67
77519;DHT22;66629;47.346;19.038;2023-04-26T05:10:07;9.16;75.11
77519;DHT22;66629;47.346;19.038;2023-04-26T05:12:33;9.38;74.42
77519;DHT22;66629;47.346;19.038;2023-04-26T05:14:59;9.41;73.75
77519;DHT22;66629;47.346;19.038;2023-04-26T05:17:25;9.37;72.97
77519;DHT22;66629;47.346;19.038;2023-04-26T05:19:50;9.28;72.94
77519;DHT22;66629;47.346;19.038;2023-04-26T05:22:16;9.44;72.36
77519;DHT22;66629;47.346;19.038;2023-04-26T05:24:46;9.63;71.44
77519;DHT22;66629;47.346;19.038;2023-04-26T05:27:12;9.71;71.71
77519;DHT22;66629;47.346;19.038;2023-04-26T05:29:37;9.68;70.74
77519;DHT22;66629;47.346;19.038;2023-04-26T05:32:03;9.62;70.80
77519;DHT22;66629;47.346;19.038;2023-04-26T05:34:28;9.78;69.80
77519;DHT22;66629;47.346;19.038;2023-04-26T05:36:53;9.61;69.91
77519;DHT22;66629;47.346;19.038;2023-04-26T05:39:19;9.87;69.22
77519;DHT22;66629;47.346;19.038;2023-04-26T05:41:45;9.93;69.16
77519;DHT22;66629;47.346;19.038;2023-04-26T05:44:12;10.06;68.52
77519;DHT22;66629;47.346;19.038;2023-04-26T05:46:37;10.15;68.76
77519;DHT22;66629;47.346;19.038;2023-04-26T05:49:03;10.22;67.23
77519;DHT22;66629;47.346;19.038;2023-04-26T05:51:28;10.53;66.65
77519;DHT22;66629;47.346;19.038;2023-04-26T05:53:54;10.46;65.91
77519;DHT22;66629;47.346;19.038;2023-04-26T05:56:19;10.53;66.31
77519;DHT22;66629;47.346;19.038;2023-04-26T05:58:45;10.62;65.60
77519;DHT22;66629;47.346;19.038;2023-04-26T06:01:12;10.31;64.90
77519;DHT22;66629;47.346;19.038;2023-04-26T06:03:38;10.70;65.26
77519;DHT22;66629;47.346;19.038;2023-04-26T06:06:03;10.98;64.18
77519;DHT22;66629;47.346;19.038;2023-04-26T06:08:29;10.73;63.58
77519;DHT22;66629;47.346;19.038;2023-04-26T06:10:55;10.81;63.58
77519;DHT22;66629;47.346;19.038;2023-04-26T06:13:20;11.14;63.35
77519;DHT22;66629;47.346;19.038;2023-04-26T06:15:45;11.28;61.41
77519;DHT22;66629;47.346;19.038;2023-04-26T06:18:11;11.62;60.71
77519;DHT22;66629;47.346;19.038;2023-04-26T06:20:36;11.22;61.07
77519;DHT22;66629;47.346;19.038;2023-04-26T06:23:02;11.36;59.97
77519;DHT22;66629;47.346;19.038;2023-04-26T06:25:27;11.31;58.96
77519;DHT22;66629;47.346;19.038;2023-04-26T06:27:53;11.60;58.20
77519;DHT22;66629;47.346;19.038;2023-04-26T06:30:18;11.22;58.40
77519;DHT22;66629;47.346;19.038;2023-04-26T06:32:44;11.28;58.05
77519;DHT22;66629;47.346;19.038;2023-04-26T06:35:10;11.28;57.62
77519;DHT22;66629;47.346;19.038;2023-04-26T06:37:36;11.67;57.55
77519;DHT22;66629;47.346;19.038;2023-04-26T06:40:02;12.01;55.11
77519;DHT22;66629;47.346;19.038;2023-04-26T06:42:28;11.97;54.85
77519;DHT22;66629;47.346;19.038;2023-04-26T06:44:53;12.28;54.48
77519;DHT22;66629;47.346;19.038;2023-04-26T06:47:19;12.05;54.38
77519;DHT22;66629;47.346;19.038;2023-04-26T06:49:44;12.42;54.97
77519;DHT22;66629;47.346;19.038;2023-04-26T06:52:09;12.87;53.56
77519;DHT22;66629;47.346;19.038;2023-04-26T06:54:35;12.59;52.07
77519;DHT22;66629;47.346;19.038;2023-04-26T06:57:00;12.87;51.78
77519;DHT22;66629;47.346;19.038;2023-04-26T06:59:26;12.59;51.95
77519;DHT22;66629;47.346;19.038;2023-04-26T07:01:52;12.61;51.78
77519;DHT22;66629;47.346;19.038;2023-04-26T07:04:18;12.83;50.81
77519;DHT22;66629;47.346;19.038;2023-04-26T07:06:44;12.37;50.90
77519;DHT22;66629;47.346;19.038;2023-04-26T07:09:10;12.93;50.48
77519;DHT22;66629;47.346;19.038;2023-04-26T07:11:36;12.88;51.38
77519;DHT22;66629;47.346;19.038;2023-04-26T07:14:03;12.33;51.70
77519;DHT22;66629;47.346;19.038;2023-04-26T07:16:28;12.74;53.93
77519;DHT22;66629;47.346;19.038;2023-04-26T07:18:53;12.39;53.30
77519;DHT22;66629;47.346;19.038;2023-04-26T07:21:22;12.60;51.30
77519;DHT22;66629;47.346;19.038;2023-04-26T07:23:52;13.13;52.77
77519;DHT22;66629;47.346;19.038;2023-04-26T07:26:18;13.19;49.45
77519;DHT22;66629;47.346;19.038;2023-04-26T07:28:43;12.99;50.03
77519;DHT22;66629;47.346;19.038;2023-04-26T07:31:08;13.96;49.75
77519;DHT22;66629;47.346;19.038;2023-04-26T07:33:34;13.83;48.41
77519;DHT22;66629;47.346;19.038;2023-04-26T07:35:59;14.01;49.18
77519;DHT22;66629;47.346;19.038;2023-04-26T07:38:26;13.24;49.06
77519;DHT22;66629;47.346;19.038;2023-04-26T07:40:51;13.27;49.67
77519;DHT22;66629;47.346;19.038;2023-04-26T07:43:20;13.20;52.74
77519;DHT22;66629;47.346;19.038;2023-04-26T07:45:45;13.65;50.57
77519;DHT22;66629;47.346;19.038;2023-04-26T07:48:11;13.33;48.64
77519;DHT22;66629;47.346;19.038;2023-04-26T07:50:37;12.78;45.83
77519;DHT22;66629;47.346;19.038;2023-04-26T07:53:02;12.89;49.17
77519;DHT22;66629;47.346;19.038;2023-04-26T07:55:28;13.27;45.79
77519;DHT22;66629;47.346;19.038;2023-04-26T07:57:53;13.55;44.72
77519;DHT22;66629;47.346;19.038;2023-04-26T08:00:19;13.50;42.80
77519;DHT22;66629;47.346;19.038;2023-04-26T08:02:46;13.82;46.30
77519;DHT22;66629;47.346;19.038;2023-04-26T08:05:12;14.03;46.81
77519;DHT22;66629;47.346;19.038;2023-04-26T08:07:38;13.22;48.72
77519;DHT22;66629;47.346;19.038;2023-04-26T08:10:03;13.16;49.11
77519;DHT22;66629;47.346;19.038;2023-04-26T08:12:29;13.61;47.70
77519;DHT22;66629;47.346;19.038;2023-04-26T08:14:54;13.96;44.16
77519;DHT22;66629;47.346;19.038;2023-04-26T08:17:20;13.57;43.26
77519;DHT22;66629;47.346;19.038;2023-04-26T08:19:45;13.98;42.97
77519;DHT22;66629;47.346;19.038;2023-04-26T08:22:11;13.83;42.05
77519;DHT22;66629;47.346;19.038;2023-04-26T08:24:36;14.49;43.06
77519;DHT22;66629;47.346;19.038;2023-04-26T08:27:01;14.12;41.85
77519;DHT22;66629;47.346;19.038;2023-04-26T08:29:28;14.21;42.30
77519;DHT22;66629;47.346;19.038;2023-04-26T08:31:53;14.27;42.13
77519;DHT22;66629;47.346;19.038;2023-04-26T08:34:18;13.93;42.89
77519;DHT22;66629;47.346;19.038;2023-04-26T08:36:44;13.68;41.61
77519;DHT22;66629;47.346;19.038;2023-04-26T08:39:12;13.76;43.22
77519;DHT22;66629;47.346;19.038;2023-04-26T08:41:48;14.03;42.92
77519;DHT22;66629;47.346;19.038;2023-04-26T08:44:14;13.62;42.08
77519;DHT22;66629;47.346;19.038;2023-04-26T08:46:46;13.32;41.80
77519;DHT22;66629;47.346;19.038;2023-04-26T08:49:25;13.82;41.12
77519;DHT22;66629;47.346;19.038;2023-04-26T08:51:55;13.72;42.43
77519;DHT22;66629;47.346;19.038;2023-04-26T08:54:22;13.71;40.85
77519;DHT22;66629;47.346;19.038;2023-04-26T08:56:50;13.96;41.35
77519;DHT22;66629;47.346;19.038;2023-04-26T08:59:16;13.50;41.69
77519;DHT22;66629;47.346;19.038;2023-04-26T09:01:42;13.54;41.88
77519;DHT22;66629;47.346;19.038;2023-04-26T09:04:08;13.86;42.23
77519;DHT22;66629;47.346;19.038;2023-04-26T09:06:34;13.67;41.78
77519;DHT22;66629;47.346;19.038;2023-04-26T09:09:02;13.99;41.74
77519;DHT22;66629;47.346;19.038;2023-04-26T09:11:29;13.83;41.02
77519;DHT22;66629;47.346;19.038;2023-04-26T09:13:55;14.06;43.15
77519;DHT22;66629;47.346;19.038;2023-04-26T09:16:34;14.16;41.25
77519;DHT22;66629;47.346;19.038;2023-04-26T09:19:00;13.87;41.55
77519;DHT22;66629;47.346;19.038;2023-04-26T09:21:26;14.28;40.62
77519;DHT22;66629;47.346;19.038;2023-04-26T09:23:58;13.83;40.48
77519;DHT22;66629;47.346;19.038;2023-04-26T09:26:25;14.28;40.72
77519;DHT22;66629;47.346;19.038;2023-04-26T09:29:16;14.36;41.50
77519;DHT22;66629;47.346;19.038;2023-04-26T09:31:44;13.75;40.73
77519;DHT22;66629;47.346;19.038;2023-04-26T09:34:11;13.90;41.03
77519;DHT22;66629;47.346;19.038;2023-04-26T09:36:53;14.26;41.10
77519;DHT22;66629;47.346;19.038;2023-04-26T09:39:38;13.62;41.34
77519;DHT22;66629;47.346;19.038;2023-04-26T09:42:08;13.65;41.69
77519;DHT22;66629;47.346;19.038;2023-04-26T09:44:34;14.34;41.57
77519;DHT22;66629;47.346;19.038;2023-04-26T09:47:05;14.05;40.15
77519;DHT22;66629;47.346;19.038;2023-04-26T09:49:43;14.58;39.43
77519;DHT22;66629;47.346;19.038;2023-04-26T09:52:09;14.57;38.71
77519;DHT22;66629;47.346;19.038;2023-04-26T09:54:40;15.13;39.37
77519;DHT22;66629;47.346;19.038;2023-04-26T09:57:06;14.76;38.51
77519;DHT22;66629;47.346;19.038;2023-04-26T09:59:39;14.52;39.84
77519;DHT22;66629;47.346;19.038;2023-04-26T10:02:09;14.45;39.21
77519;DHT22;66629;47.346;19.038;2023-04-26T10:04:35;15.24;39.43
77519;DHT22;66629;47.346;19.038;2023-04-26T10:07:00;15.34;40.14
77519;DHT22;66629;47.346;19.038;2023-04-26T10:09:26;15.48;39.11
77519;DHT22;66629;47.346;19.038;2023-04-26T10:11:52;15.45;37.22
77519;DHT22;66629;47.346;19.038;2023-04-26T10:14:17;15.20;39.26
77519;DHT22;66629;47.346;19.038;2023-04-26T10:16:43;14.61;39.68
77519;DHT22;66629;47.346;19.038;2023-04-26T10:19:10;14.78;40.49
77519;DHT22;66629;47.346;19.038;2023-04-26T10:21:37;14.36;39.78
77519;DHT22;66629;47.346;19.038;2023-04-26T10:24:03;14.30;41.63
77519;DHT22;66629;47.346;19.038;2023-04-26T10:26:49;13.69;40.60
77519;DHT22;66629;47.346;19.038;2023-04-26T10:29:17;14.13;39.04
77519;DHT22;66629;47.346;19.038;2023-04-26T10:34:26;13.98;40.47
77519;DHT22;66629;47.346;19.038;2023-04-26T10:37:14;13.53;44.88
77519;DHT22;66629;47.346;19.038;2023-04-26T10:39:45;13.48;42.35
77519;DHT22;66629;47.346;19.038;2023-04-26T10:42:27;14.24;43.05
77519;DHT22;66629;47.346;19.038;2023-04-26T10:44:57;14.20;40.56
77519;DHT22;66629;47.346;19.038;2023-04-26T10:47:29;15.42;44.63
77519;DHT22;66629;47.346;19.038;2023-04-26T10:50:03;15.23;41.24
77519;DHT22;66629;47.346;19.038;2023-04-26T10:52:29;14.71;40.11
77519;DHT22;66629;47.346;19.038;2023-04-26T10:54:56;14.21;41.22
77519;DHT22;66629;47.346;19.038;2023-04-26T11:03:03;14.68;40.37
77519;DHT22;66629;47.346;19.038;2023-04-26T11:05:40;15.02;39.64
77519;DHT22;66629;47.346;19.038;2023-04-26T11:08:07;15.62;39.75
77519;DHT22;66629;47.346;19.038;2023-04-26T11:10:39;15.67;37.41
77519;DHT22;66629;47.346;19.038;2023-04-26T11:13:05;15.41;38.31
77519;DHT22;66629;47.346;19.038;2023-04-26T11:15:30;14.67;38.91
77519;DHT22;66629;47.346;19.038;2023-04-26T11:17:56;14.60;40.08
77519;DHT22;66629;47.346;19.038;2023-04-26T11:20:27;14.31;41.72
77519;DHT22;66629;47.346;19.038;2023-04-26T11:22:52;14.26;41.00
77519;DHT22;66629;47.346;19.038;2023-04-26T11:25:18;14.20;39.85
77519;DHT22;66629;47.346;19.038;2023-04-26T11:27:44;14.97;37.27
77519;DHT22;66629;47.346;19.038;2023-04-26T11:30:10;15.02;35.86
77519;DHT22;66629;47.346;19.038;2023-04-26T11:32:36;15.32;38.24
77519;DHT22;66629;47.346;19.038;2023-04-26T11:35:02;15.14;37.26
77519;DHT22;66629;47.346;19.038;2023-04-26T11:37:28;14.68;39.68
77519;DHT22;66629;47.346;19.038;2023-04-26T11:39:53;14.45;39.88
77519;DHT22;66629;47.346;19.038;2023-04-26T11:42:24;13.85;39.83
77519;DHT22;66629;47.346;19.038;2023-04-26T11:44:50;13.53;40.82
77519;DHT22;66629;47.346;19.038;2023-04-26T11:47:16;13.50;41.27
77519;DHT22;66629;47.346;19.038;2023-04-26T11:49:42;13.37;42.57
77519;DHT22;66629;47.346;19.038;2023-04-26T11:52:08;13.39;41.60
77519;DHT22;66629;47.346;19.038;2023-04-26T11:54:35;13.28;39.24
77519;DHT22;66629;47.346;19.038;2023-04-26T11:57:22;13.57;41.96
77519;DHT22;66629;47.346;19.038;2023-04-26T11:59:48;14.21;40.00
77519;DHT22;66629;47.346;19.038;2023-04-26T12:02:14;14.24;40.09
77519;DHT22;66629;47.346;19.038;2023-04-26T12:04:39;14.37;43.63
77519;DHT22;66629;47.346;19.038;2023-04-26T12:07:05;14.01;39.81
77519;DHT22;66629;47.346;19.038;2023-04-26T12:09:31;14.21;41.85
77519;DHT22;66629;47.346;19.038;2023-04-26T12:11:57;14.06;43.87
77519;DHT22;66629;47.346;19.038;2023-04-26T12:14:32;13.57;43.61
77519;DHT22;66629;47.346;19.038;2023-04-26T12:17:01;13.50;41.34
77519;DHT22;66629;47.346;19.038;2023-04-26T12:19:31;13.69;42.79
77519;DHT22;66629;47.346;19.038;2023-04-26T12:21:57;13.42;41.70
77519;DHT22;66629;47.346;19.038;2023-04-26T12:24:24;13.44;41.10
77519;DHT22;66629;47.346;19.038;2023-04-26T12:26:50;13.54;41.66
77519;DHT22;66629;47.346;19.038;2023-04-26T12:29:16;13.46;40.09
77519;DHT22;66629;47.346;19.038;2023-04-26T12:31:42;13.42;37.74
77519;DHT22;66629;47.346;19.038;2023-04-26T12:34:07;13.50;39.56
77519;DHT22;66629;47.346;19.038;2023-04-26T12:36:33;14.02;42.15
77519;DHT22;66629;47.346;19.038;2023-04-26T12:38:58;14.87;40.04
77519;DHT22;66629;47.346;19.038;2023-04-26T12:41:25;15.35;39.26
77519;DHT22;66629;47.346;19.038;2023-04-26T12:43:50;14.92;39.78
77519;DHT22;66629;47.346;19.038;2023-04-26T12:46:15;14.54;39.14
77519;DHT22;66629;47.346;19.038;2023-04-26T12:48:41;14.36;41.09
77519;DHT22;66629;47.346;19.038;2023-04-26T12:51:06;13.81;39.95
77519;DHT22;66629;47.346;19.038;2023-04-26T12:53:32;13.32;41.04
77519;DHT22;66629;47.346;19.038;2023-04-26T12:55:58;13.13;42.87
77519;DHT22;66629;47.346;19.038;2023-04-26T12:58:23;13.08;41.74
77519;DHT22;66629;47.346;19.038;2023-04-26T13:00:49;13.30;41.72
77519;DHT22;66629;47.346;19.038;2023-04-26T13:03:16;13.44;41.61
77519;DHT22;66629;47.346;19.038;2023-04-26T13:05:41;13.40;41.45
77519;DHT22;66629;47.346;19.038;2023-04-26T13:08:07;13.32;40.01
77519;DHT22;66629;47.346;19.038;2023-04-26T13:10:32;13.43;41.72
77519;DHT22;66629;47.346;19.038;2023-04-26T13:12:58;13.27;41.06
77519;DHT22;66629;47.346;19.038;2023-04-26T13:15:24;13.12;41.28
77519;DHT22;66629;47.346;19.038;2023-04-26T13:17:51;13.23;41.31
77519;DHT22;66629;47.346;19.038;2023-04-26T13:20:16;13.44;44.12
77519;DHT22;66629;47.346;19.038;2023-04-26T13:22:42;13.43;39.94
77519;DHT22;66629;47.346;19.038;2023-04-26T13:25:08;13.33;40.47
77519;DHT22;66629;47.346;19.038;2023-04-26T13:27:34;13.58;41.75
77519;DHT22;66629;47.346;19.038;2023-04-26T13:30:01;13.86;39.40
77519;DHT22;66629;47.346;19.038;2023-04-26T13:32:28;14.10;37.52
77519;DHT22;66629;47.346;19.038;2023-04-26T13:34:53;14.20;39.43
77519;DHT22;66629;47.346;19.038;2023-04-26T13:37:19;14.03;40.12
77519;DHT22;66629;47.346;19.038;2023-04-26T13:39:45;13.83;40.51
77519;DHT22;66629;47.346;19.038;2023-04-26T13:42:13;13.60;42.40
77519;DHT22;66629;47.346;19.038;2023-04-26T13:44:38;13.01;41.11
77519;DHT22;66629;47.346;19.038;2023-04-26T13:47:04;12.91;42.57
77519;DHT22;66629;47.346;19.038;2023-04-26T13:49:30;12.99;42.73
77519;DHT22;66629;47.346;19.038;2023-04-26T13:51:56;13.03;43.59
77519;DHT22;66629;47.346;19.038;2023-04-26T13:54:21;12.92;41.09
77519;DHT22;66629;47.346;19.038;2023-04-26T13:56:47;12.83;40.84
77519;DHT22;66629;47.346;19.038;2023-04-26T13:59:13;13.02;41.24
77519;DHT22;66629;47.346;19.038;2023-04-26T14:01:38;12.89;40.75
77519;DHT22;66629;47.346;19.038;2023-04-26T14:04:04;13.34;42.23
77519;DHT22;66629;47.346;19.038;2023-04-26T14:06:30;13.60;41.31
77519;DHT22;66629;47.346;19.038;2023-04-26T14:08:57;13.57;39.77
77519;DHT22;66629;47.346;19.038;2023-04-26T14:11:23;13.64;39.85
77519;DHT22;66629;47.346;19.038;2023-04-26T14:13:48;13.82;37.81
77519;DHT22;66629;47.346;19.038;2023-04-26T14:16:14;13.79;38.27
77519;DHT22;66629;47.346;19.038;2023-04-26T14:18:41;14.14;37.91
77519;DHT22;66629;47.346;19.038;2023-04-26T14:21:10;14.42;36.31
77519;DHT22;66629;47.346;19.038;2023-04-26T14:23:36;14.46;38.59
77519;DHT22;66629;47.346;19.038;2023-04-26T14:26:01;14.46;39.82
77519;DHT22;66629;47.346;19.038;2023-04-26T14:28:27;14.34;39.70
77519;DHT22;66629;47.346;19.038;2023-04-26T14:30:52;13.98;39.62
77519;DHT22;66629;47.346;19.038;2023-04-26T14:33:18;14.54;40.82
77519;DHT22;66629;47.346;19.038;2023-04-26T14:35:43;14.51;39.82
77519;DHT22;66629;47.346;19.038;2023-04-26T14:38:09;13.74;40.14
77519;DHT22;66629;47.346;19.038;2023-04-26T14:40:35;13.69;41.72
77519;DHT22;66629;47.346;19.038;2023-04-26T14:43:01;13.24;39.38
77519;DHT22;66629;47.346;19.038;2023-04-26T14:45:27;12.91;39.31
77519;DHT22;66629;47.346;19.038;2023-04-26T14:47:52;12.74;39.76
77519;DHT22;66629;47.346;19.038;2023-04-26T14:50:17;12.81;40.82
77519;DHT22;66629;47.346;19.038;2023-04-26T14:52:44;12.60;41.13
77519;DHT22;66629;47.346;19.038;2023-04-26T14:55:16;13.03;42.23
77519;DHT22;66629;47.346;19.038;2023-04-26T14:57:42;13.08;41.28
77519;DHT22;66629;47.346;19.038;2023-04-26T15:00:08;12.93;41.44
77519;DHT22;66629;47.346;19.038;2023-04-26T15:02:33;12.80;42.85
77519;DHT22;66629;47.346;19.038;2023-04-26T15:04:59;12.88;43.53
77519;DHT22;66629;47.346;19.038;2023-04-26T15:07:28;12.98;42.85
77519;DHT22;66629;47.346;19.038;2023-04-26T15:09:53;13.40;43.76
77519;DHT22;66629;47.346;19.038;2023-04-26T15:12:18;13.68;42.88
77519;DHT22;66629;47.346;19.038;2023-04-26T15:14:44;13.65;41.40
77519;DHT22;66629;47.346;19.038;2023-04-26T15:17:09;13.58;42.26
77519;DHT22;66629;47.346;19.038;2023-04-26T15:19:35;13.44;40.22
77519;DHT22;66629;47.346;19.038;2023-04-26T15:22:01;13.36;39.50
77519;DHT22;66629;47.346;19.038;2023-04-26T15:24:26;13.24;38.35
77519;DHT22;66629;47.346;19.038;2023-04-26T15:26:53;13.40;38.95